EBLG/LGG METAR and TAF weather

Enter ICAO airport designator
Station Type Date Time Source
EBLG METAR 2020/02/24 22:50 UTC NOAA

EBLG 242250Z 24020KT 9999 BKN012 10/08 Q1006 TEMPO 24020G30KT 4000 RADZ BKN008


Station Type Date Time Source
EBLG Decoded METAR 2020/02/24 22:50 UTC NOAA

Bierset, Belgium (EBLG) 50-39N 005-27E 178M
Feb 24, 2020 - 05:50 PM EST / 2020.02.24 2250 UTC
Wind: from the WSW (240 degrees) at 23 MPH (20 KT):0
Visibility: greater than 7 mile(s):0
Sky conditions: mostly cloudy
Temperature: 50 F (10 C)
Dew Point: 46 F (8 C)
Relative Humidity: 87%
Pressure (altimeter): 29.71 in. Hg (1006 hPa)
ob: EBLG 242250Z 24020KT 9999 BKN012 10/08 Q1006 TEMPO 24020G30KT 4000 RADZ BKN008
cycle: 23

Station Type Date Time Source
EBLG TAF 2020/02/24 18:27 UTC NOAA

TAF EBLG 241703Z 2418/2524 23018G30KT 9999 SCT012 BKN025
TEMPO 2418/2502 3000 RA DZRA BKN007
BECMG 2423/2501 25012KT
TEMPO 2512/2524 25018G30KT 3500 SHRAGS PROB30
TEMPO 2522/2524 1500 SHSNRA BKN006 SCT012CB

Example: see airport list